createdAt,value
2018-07-22T00:01:39.732Z,81.10
2018-07-22T00:04:09.893Z,81.00
2018-07-22T00:06:40.062Z,81.80
2018-07-22T00:09:12.413Z,81.20
2018-07-22T00:11:42.653Z,82.00
2018-07-22T00:14:12.825Z,82.40
2018-07-22T00:16:43.120Z,82.90
2018-07-22T00:19:13.191Z,84.50
2018-07-22T00:21:43.564Z,86.30
2018-07-22T00:24:13.668Z,87.90
2018-07-22T00:26:44.220Z,88.50
2018-07-22T00:29:14.481Z,89.60
2018-07-22T00:31:44.582Z,90.20
2018-07-22T00:34:14.789Z,90.40
2018-07-22T00:36:44.953Z,90.60
2018-07-22T00:39:17.318Z,90.70
2018-07-22T00:44:18.008Z,90.90
2018-07-22T00:46:48.117Z,90.90
2018-07-22T00:49:18.266Z,91.00
2018-07-22T00:51:48.420Z,91.10
2018-07-22T00:54:18.545Z,91.20
2018-07-22T00:56:48.712Z,91.40
2018-07-22T00:59:19.192Z,91.60
2018-07-22T01:01:49.324Z,92.00
2018-07-22T01:04:19.367Z,92.30
2018-07-22T01:06:49.489Z,92.60
2018-07-22T01:09:19.607Z,92.60
2018-07-22T01:11:49.791Z,92.70
2018-07-22T01:14:19.892Z,92.80
2018-07-22T01:16:50.016Z,92.90
2018-07-22T01:19:20.212Z,93.00
2018-07-22T01:21:50.373Z,92.90
2018-07-22T01:24:20.492Z,92.80
2018-07-22T01:26:50.613Z,93.00
2018-07-22T01:29:20.703Z,92.40
2018-07-22T01:31:50.816Z,92.30
2018-07-22T01:34:20.853Z,92.10
2018-07-22T01:36:50.977Z,91.70
2018-07-22T01:39:21.008Z,91.70
2018-07-22T01:41:51.113Z,91.70
2018-07-22T01:44:21.444Z,91.60
2018-07-22T01:46:51.601Z,91.50
2018-07-22T01:49:21.669Z,91.80
2018-07-22T01:51:51.789Z,91.70
2018-07-22T01:54:21.853Z,91.50
2018-07-22T01:59:21.956Z,91.30
2018-07-22T02:01:52.103Z,91.60
2018-07-22T02:04:22.144Z,91.60
2018-07-22T02:06:52.266Z,91.70
2018-07-22T02:09:22.416Z,91.80
2018-07-22T02:11:52.543Z,91.70
2018-07-22T02:14:22.868Z,91.80
2018-07-22T02:16:53.021Z,91.60
2018-07-22T02:19:23.052Z,91.80
2018-07-22T02:21:53.507Z,91.90
2018-07-22T02:24:23.562Z,92.00
2018-07-22T02:26:53.669Z,92.10
2018-07-22T02:29:23.932Z,91.90
2018-07-22T02:31:54.095Z,91.90
2018-07-22T02:34:24.224Z,92.00
2018-07-22T02:36:54.410Z,92.00
2018-07-22T02:39:24.545Z,92.00
2018-07-22T02:41:54.624Z,92.20
2018-07-22T02:44:24.749Z,92.20
2018-07-22T02:49:24.985Z,92.50
2018-07-22T02:51:55.281Z,92.50
2018-07-22T02:54:25.308Z,92.50
2018-07-22T02:56:55.405Z,92.60
2018-07-22T02:59:25.509Z,92.60
2018-07-22T03:01:55.924Z,92.80
2018-07-22T03:04:25.985Z,92.90
2018-07-22T03:06:56.123Z,92.80
2018-07-22T03:09:26.157Z,92.90
2018-07-22T03:11:56.292Z,92.90
2018-07-22T03:14:26.413Z,92.80
2018-07-22T03:16:56.881Z,92.80
2018-07-22T03:19:26.920Z,92.70
2018-07-22T03:24:26.437Z,92.80
2018-07-22T03:29:26.139Z,93.10
2018-07-22T03:31:56.220Z,93.10
2018-07-22T03:34:26.358Z,93.10
2018-07-22T03:36:56.484Z,92.90
2018-07-22T03:39:26.513Z,93.20
2018-07-22T03:41:56.632Z,93.50
2018-07-22T03:44:26.666Z,93.30
2018-07-22T03:46:56.787Z,93.20
2018-07-22T03:49:26.888Z,93.80
2018-07-22T03:51:57.024Z,93.30
2018-07-22T03:54:27.304Z,92.60
2018-07-22T03:56:57.420Z,92.10
2018-07-22T03:59:27.537Z,92.50
2018-07-22T04:01:57.617Z,92.00
2018-07-22T04:06:57.107Z,91.80
2018-07-22T04:09:27.171Z,91.50
2018-07-22T04:11:57.605Z,91.30
2018-07-22T04:14:27.752Z,91.10
2018-07-22T04:16:58.253Z,91.20
2018-07-22T04:19:28.351Z,90.90
2018-07-22T04:21:58.505Z,90.90
2018-07-22T04:24:28.615Z,91.00
2018-07-22T04:26:58.834Z,91.20
2018-07-22T04:29:28.935Z,91.20
2018-07-22T04:31:59.085Z,90.90
2018-07-22T04:34:29.157Z,91.70
2018-07-22T04:36:59.323Z,92.60
2018-07-22T04:39:29.377Z,93.20
2018-07-22T04:41:59.546Z,94.60
2018-07-22T04:44:29.723Z,94.60
2018-07-22T04:47:00.017Z,95.00
2018-07-22T04:49:30.120Z,94.20
2018-07-22T04:52:00.435Z,94.70
2018-07-22T04:54:30.569Z,94.90
2018-07-22T04:57:00.700Z,94.80
2018-07-22T04:59:30.876Z,94.50
2018-07-22T05:02:01.057Z,93.30
2018-07-22T05:04:31.196Z,90.70
2018-07-22T05:07:01.281Z,89.30
2018-07-22T05:09:31.405Z,89.50
2018-07-22T05:12:01.537Z,87.80
2018-07-22T05:14:31.673Z,88.10
2018-07-22T05:17:01.769Z,87.30
2018-07-22T05:19:31.952Z,86.80
2018-07-22T05:22:02.085Z,88.00
2018-07-22T05:24:32.185Z,87.30
2018-07-22T05:27:02.341Z,88.80
2018-07-22T05:29:32.444Z,88.30
2018-07-22T05:32:02.564Z,86.80
2018-07-22T05:34:32.636Z,88.20
2018-07-22T05:37:03.146Z,87.80
2018-07-22T05:39:33.285Z,86.90
2018-07-22T05:42:03.618Z,86.40
2018-07-22T05:44:33.698Z,85.00
2018-07-22T05:47:04.054Z,85.00
2018-07-22T05:49:34.155Z,83.00
2018-07-22T05:52:04.411Z,84.80
2018-07-22T05:54:34.785Z,83.00
2018-07-22T05:57:04.912Z,82.80
2018-07-22T05:59:34.935Z,82.80
2018-07-22T06:02:05.173Z,81.90
2018-07-22T06:07:05.001Z,84.20
2018-07-22T06:12:04.769Z,81.60
2018-07-22T06:14:34.937Z,81.10
2018-07-22T06:17:05.292Z,79.50
2018-07-22T06:22:05.080Z,81.30
2018-07-22T06:24:35.192Z,79.60
2018-07-22T06:27:05.589Z,82.30
2018-07-22T06:29:35.694Z,79.70
2018-07-22T06:32:06.002Z,78.20
2018-07-22T06:34:36.073Z,77.20
2018-07-22T06:37:06.196Z,75.80
2018-07-22T06:39:36.292Z,76.60
2018-07-22T06:42:06.469Z,74.60
2018-07-22T06:44:36.545Z,71.80
2018-07-22T06:47:07.251Z,71.60
2018-07-22T06:49:37.433Z,71.20
2018-07-22T06:52:07.555Z,69.90
2018-07-22T06:54:37.615Z,71.50
2018-07-22T06:57:08.205Z,70.90
2018-07-22T07:02:16.359Z,68.20
2018-07-22T07:04:47.650Z,68.20
2018-07-22T07:07:18.045Z,68.00
2018-07-22T07:09:48.164Z,68.20
2018-07-22T07:12:18.300Z,66.30
2018-07-22T07:14:48.516Z,64.20
2018-07-22T07:17:18.653Z,64.20
2018-07-22T07:19:48.785Z,66.50
2018-07-22T07:24:48.836Z,66.10
2018-07-22T07:27:18.924Z,61.20
2018-07-22T07:29:49.068Z,61.10
2018-07-22T07:32:19.205Z,60.60
2018-07-22T07:34:49.356Z,65.50
2018-07-22T07:37:19.552Z,60.90
2018-07-22T07:39:49.596Z,64.00
2018-07-22T07:42:19.712Z,64.00
2018-07-22T07:44:50.165Z,64.70
2018-07-22T07:47:20.325Z,66.60
2018-07-22T07:49:50.460Z,66.60
2018-07-22T07:52:20.585Z,62.80
2018-07-22T07:54:50.661Z,63.90
2018-07-22T07:57:21.124Z,64.70
2018-07-22T07:59:53.840Z,64.90
2018-07-22T08:02:25.880Z,65.40
2018-07-22T08:04:56.361Z,61.60
2018-07-22T08:07:26.623Z,63.50
2018-07-22T08:09:56.793Z,60.50
2018-07-22T08:12:26.980Z,59.90
2018-07-22T08:14:57.251Z,63.10
2018-07-22T08:17:27.452Z,59.00
2018-07-22T08:19:57.653Z,60.60
2018-07-22T08:22:27.896Z,59.30
2018-07-22T08:24:58.041Z,60.50
2018-07-22T08:27:28.192Z,62.20
2018-07-22T08:29:58.324Z,60.00
2018-07-22T08:32:28.467Z,56.40
2018-07-22T08:34:58.663Z,57.90
2018-07-22T08:37:28.800Z,61.00
2018-07-22T08:39:58.949Z,58.70
2018-07-22T08:42:29.126Z,59.30
2018-07-22T08:44:59.314Z,62.10
2018-07-22T08:47:30.125Z,62.60
2018-07-22T08:50:01.258Z,62.40
2018-07-22T08:52:31.428Z,59.70
2018-07-22T08:55:01.560Z,62.50
2018-07-22T08:57:31.710Z,63.40
2018-07-22T09:02:31.273Z,57.60
2018-07-22T09:05:01.387Z,55.60
2018-07-22T09:07:31.549Z,54.00
2018-07-22T09:10:01.674Z,56.70
2018-07-22T09:12:31.804Z,56.00
2018-07-22T09:15:01.963Z,55.60
2018-07-22T09:17:32.073Z,57.20
2018-07-22T09:20:02.184Z,53.60
2018-07-22T09:25:18.370Z,53.30
2018-07-22T09:27:48.517Z,52.00
2018-07-22T09:30:18.649Z,51.50
2018-07-22T09:32:48.952Z,50.70
2018-07-22T09:37:48.744Z,51.30
2018-07-22T09:40:18.911Z,51.70
2018-07-22T09:42:49.044Z,51.20
2018-07-22T09:45:19.155Z,52.60
2018-07-22T09:47:49.268Z,50.90
2018-07-22T09:50:19.396Z,51.60
2018-07-22T09:52:49.572Z,51.50
2018-07-22T09:55:19.682Z,51.50
2018-07-22T09:57:49.842Z,52.50
2018-07-22T10:00:24.937Z,54.10
2018-07-22T10:02:55.077Z,51.40
2018-07-22T10:05:25.199Z,51.60
2018-07-22T10:07:55.296Z,51.40
2018-07-22T10:10:25.439Z,51.40
2018-07-22T10:12:55.658Z,47.40
2018-07-22T10:15:25.703Z,48.50
2018-07-22T10:17:55.873Z,47.00
2018-07-22T10:20:26.124Z,47.20
2018-07-22T10:22:56.257Z,47.40
2018-07-22T10:25:26.413Z,46.40
2018-07-22T10:27:56.537Z,47.20
2018-07-22T10:30:26.669Z,45.90
2018-07-22T10:32:56.833Z,48.60
2018-07-22T10:35:26.997Z,45.10
2018-07-22T10:37:57.160Z,46.60
2018-07-22T10:42:56.965Z,45.40
2018-07-22T10:45:27.141Z,48.50
2018-07-22T10:47:57.317Z,51.10
2018-07-22T10:50:27.460Z,47.20
2018-07-22T10:52:57.588Z,47.10
2018-07-22T10:57:57.358Z,49.30
2018-07-22T11:00:27.527Z,47.10
2018-07-22T11:02:58.021Z,46.60
2018-07-22T11:05:28.172Z,47.40
2018-07-22T11:07:58.303Z,46.10
2018-07-22T11:12:57.877Z,46.90
2018-07-22T11:15:28.177Z,48.30
2018-07-22T11:17:58.484Z,48.50
2018-07-22T11:20:28.601Z,44.30
2018-07-22T11:22:58.748Z,47.20
2018-07-22T11:25:28.881Z,43.70
2018-07-22T11:27:59.030Z,45.20
2018-07-22T11:30:29.184Z,46.10
2018-07-22T11:32:59.328Z,45.80
2018-07-22T11:35:29.496Z,45.40
2018-07-22T11:40:29.264Z,45.60
2018-07-22T11:42:59.372Z,42.80
2018-07-22T11:45:29.432Z,40.90
2018-07-22T11:48:00.084Z,42.60
2018-07-22T11:50:30.258Z,42.70
2018-07-22T11:53:00.404Z,42.10
2018-07-22T11:55:30.533Z,42.20
2018-07-22T11:58:00.661Z,41.70
2018-07-22T12:00:30.750Z,39.40
2018-07-22T12:03:01.001Z,40.00
2018-07-22T12:05:31.104Z,38.30
2018-07-22T12:08:01.202Z,40.30
2018-07-22T12:10:31.238Z,39.30
2018-07-22T12:13:01.315Z,39.40
2018-07-22T12:15:31.427Z,40.20
2018-07-22T12:18:01.575Z,40.70
2018-07-22T12:20:31.783Z,40.80
2018-07-22T12:23:01.845Z,38.80
2018-07-22T12:25:31.961Z,38.80
2018-07-22T12:28:02.273Z,39.20
2018-07-22T12:30:32.369Z,38.30
2018-07-22T12:33:02.458Z,38.00
2018-07-22T12:35:32.485Z,38.00
2018-07-22T12:38:02.675Z,39.60
2018-07-22T12:40:32.823Z,37.60
2018-07-22T12:43:02.990Z,38.30
2018-07-22T12:45:33.124Z,36.20
2018-07-22T12:48:03.266Z,37.40
2018-07-22T12:50:33.304Z,37.10
2018-07-22T12:53:03.461Z,35.20
2018-07-22T12:55:33.585Z,34.00
2018-07-22T12:58:03.741Z,33.70
2018-07-22T13:00:34.013Z,34.30
2018-07-22T13:03:04.206Z,32.80
2018-07-22T13:05:34.705Z,32.60
2018-07-22T13:08:04.955Z,34.10
2018-07-22T13:10:35.157Z,33.00
2018-07-22T13:15:35.005Z,33.40
2018-07-22T13:18:05.209Z,32.90
2018-07-22T13:20:35.347Z,32.40
2018-07-22T13:23:05.567Z,32.50
2018-07-22T13:25:35.737Z,33.90
2018-07-22T13:28:06.069Z,33.80
2018-07-22T13:30:36.171Z,32.00
2018-07-22T13:33:06.469Z,33.00
2018-07-22T13:35:36.637Z,35.00
2018-07-22T13:38:06.888Z,36.50
2018-07-22T13:40:36.991Z,37.20
2018-07-22T13:43:07.673Z,37.60
2018-07-22T13:45:37.879Z,35.20
2018-07-22T13:48:08.030Z,35.70
2018-07-22T13:50:38.168Z,34.00
2018-07-22T13:53:08.324Z,34.90
2018-07-22T13:55:38.468Z,33.30
2018-07-22T13:58:08.621Z,32.00
2018-07-22T14:00:38.951Z,35.30
2018-07-22T14:03:09.226Z,33.10
2018-07-22T14:05:39.360Z,35.60
2018-07-22T14:08:09.503Z,37.50
2018-07-22T14:10:39.630Z,38.50
2018-07-22T14:13:09.812Z,39.60
2018-07-22T14:15:40.048Z,41.40
2018-07-22T14:18:10.429Z,42.00
2018-07-22T14:20:40.822Z,40.70
2018-07-22T14:23:10.968Z,41.10
2018-07-22T14:28:10.745Z,38.90
2018-07-22T14:30:40.916Z,39.10
2018-07-22T14:33:11.269Z,37.20
2018-07-22T14:35:41.405Z,36.80
2018-07-22T14:38:11.542Z,37.10
2018-07-22T14:40:41.896Z,36.20
2018-07-22T14:43:12.044Z,34.30
2018-07-22T14:45:42.127Z,34.90
2018-07-22T14:48:12.659Z,33.90
2018-07-22T14:50:42.768Z,35.20
2018-07-22T14:53:12.933Z,35.10
2018-07-22T14:55:43.049Z,36.90
2018-07-22T14:58:13.193Z,37.20
2018-07-22T15:00:43.296Z,36.70
2018-07-22T15:03:13.560Z,37.90
2018-07-22T15:05:43.680Z,36.00
2018-07-22T15:08:13.840Z,36.30
2018-07-22T15:10:43.985Z,36.50
2018-07-22T15:13:14.409Z,36.40
2018-07-22T15:15:44.514Z,36.00
2018-07-22T15:18:14.709Z,35.80
2018-07-22T15:20:45.031Z,38.80
2018-07-22T15:23:15.217Z,38.30
2018-07-22T15:25:45.708Z,40.00
2018-07-22T15:28:16.037Z,37.50
2018-07-22T15:30:46.279Z,36.90
2018-07-22T15:33:16.361Z,35.10
2018-07-22T15:35:46.565Z,33.90
2018-07-22T15:38:16.716Z,35.70
2018-07-22T16:05:58.031Z,39.20
2018-07-22T16:10:58.101Z,40.40
2018-07-22T16:13:28.221Z,39.40
2018-07-22T16:15:58.496Z,39.70
2018-07-22T16:18:28.648Z,40.60
2018-07-22T16:20:58.756Z,39.60
2018-07-22T16:23:28.924Z,39.30
2018-07-22T16:25:59.097Z,39.50
2018-07-22T16:28:29.229Z,39.80
2018-07-22T16:30:59.536Z,39.70
2018-07-22T16:33:29.636Z,38.70
2018-07-22T16:35:59.898Z,39.40
2018-07-22T16:38:30.217Z,39.90
2018-07-22T16:41:00.691Z,40.90
2018-07-22T16:43:30.828Z,40.40
2018-07-22T16:46:01.269Z,41.10
2018-07-22T16:51:00.804Z,41.60
2018-07-22T16:53:31.106Z,41.30
2018-07-22T16:56:01.208Z,41.20
2018-07-22T16:58:31.313Z,40.60
2018-07-22T17:01:01.438Z,39.70
2018-07-22T17:03:31.600Z,40.70
2018-07-22T17:06:01.716Z,40.90
2018-07-22T17:08:32.297Z,41.60
2018-07-22T17:11:02.469Z,42.20
2018-07-22T17:13:33.016Z,42.00
2018-07-22T17:16:03.192Z,42.80
2018-07-22T17:18:33.362Z,42.00
2018-07-22T17:21:03.509Z,43.30
2018-07-22T17:23:33.720Z,42.60
2018-07-22T17:26:03.892Z,42.80
2018-07-22T17:28:34.307Z,42.70
2018-07-22T17:31:04.645Z,43.10
2018-07-22T17:33:34.805Z,42.90
2018-07-22T17:36:07.810Z,43.20
2018-07-22T17:38:41.065Z,43.60
2018-07-22T17:41:11.457Z,44.20
2018-07-22T17:43:41.788Z,44.80
2018-07-22T17:46:12.168Z,44.60
2018-07-22T17:48:42.302Z,44.90
2018-07-22T17:51:12.474Z,45.00
2018-07-22T17:53:42.649Z,45.20
2018-07-22T17:56:13.036Z,45.50
2018-07-22T17:58:43.512Z,46.30
2018-07-22T18:01:13.880Z,46.60
2018-07-22T18:03:44.260Z,46.80
2018-07-22T18:06:14.505Z,47.00
2018-07-22T18:08:44.807Z,47.80
2018-07-22T18:11:15.055Z,48.20
2018-07-22T18:13:45.241Z,48.90
2018-07-22T18:16:15.497Z,49.60
2018-07-22T18:18:46.101Z,50.10
2018-07-22T18:21:16.336Z,50.90
2018-07-22T18:23:46.518Z,51.10
2018-07-22T18:26:16.713Z,51.60
2018-07-22T18:28:46.962Z,52.40
2018-07-22T18:31:17.242Z,53.40
2018-07-22T18:33:54.386Z,53.90
2018-07-22T18:36:24.569Z,55.20
2018-07-22T18:39:08.245Z,56.10
2018-07-22T18:41:38.668Z,57.00
2018-07-22T18:44:22.692Z,57.50
2018-07-22T18:46:52.840Z,58.60
2018-07-22T18:52:05.809Z,59.20
2018-07-22T18:55:01.598Z,59.80
2018-07-22T18:57:32.055Z,60.70
2018-07-22T19:00:11.633Z,61.90
2018-07-22T19:02:42.221Z,62.50
2018-07-22T19:05:25.325Z,62.60
2018-07-22T19:07:55.497Z,62.70
2018-07-22T19:10:39.183Z,63.50
2018-07-22T19:13:09.279Z,63.80
2018-07-22T19:15:53.077Z,64.00
2018-07-22T19:18:23.196Z,64.80
2018-07-22T19:20:55.826Z,64.90
2018-07-22T19:23:38.027Z,65.20
2018-07-22T19:26:10.819Z,65.30
2018-07-22T19:28:52.423Z,66.30
2018-07-22T19:31:22.513Z,67.00
2018-07-22T19:34:00.916Z,66.80
2018-07-22T19:36:30.996Z,67.10
2018-07-22T19:39:01.145Z,67.40
2018-07-22T19:41:31.417Z,67.20
2018-07-22T19:44:01.574Z,67.40
2018-07-22T19:46:31.699Z,68.30
2018-07-22T19:49:20.421Z,68.50
2018-07-22T19:51:50.538Z,69.10
2018-07-22T19:54:20.718Z,69.00
2018-07-22T19:56:50.850Z,69.90
2018-07-22T19:59:21.149Z,70.20
2018-07-22T20:01:51.239Z,70.10
2018-07-22T20:48:03.331Z,71.00
2018-07-22T20:50:34.246Z,74.60
2018-07-22T20:53:04.402Z,74.80
2018-07-22T20:55:34.480Z,75.70
2018-07-22T20:58:04.588Z,74.90
2018-07-22T21:00:36.418Z,75.30
2018-07-22T21:03:06.645Z,74.80
2018-07-22T21:05:50.509Z,75.80
2018-07-22T21:08:20.622Z,75.50
2018-07-22T21:11:05.214Z,75.40
2018-07-22T21:13:36.722Z,75.40
2018-07-22T21:16:20.345Z,75.30
2018-07-22T21:18:50.421Z,75.90
2018-07-22T21:21:34.790Z,75.50
2018-07-22T21:24:05.043Z,75.80
2018-07-22T21:26:49.009Z,75.70
2018-07-22T21:29:19.133Z,75.60
2018-07-22T21:34:33.164Z,75.40
2018-07-22T21:37:05.708Z,75.70
2018-07-22T21:39:46.964Z,75.60
2018-07-22T21:44:46.410Z,76.00
2018-07-22T21:47:16.567Z,76.50
2018-07-22T21:49:46.654Z,76.30
2018-07-22T21:52:17.001Z,76.60
2018-07-22T21:54:47.167Z,76.60
2018-07-22T21:57:17.672Z,77.00
2018-07-22T21:59:47.959Z,77.40
2018-07-22T22:02:18.046Z,77.80
2018-07-22T22:04:50.908Z,78.00
2018-07-22T22:07:20.986Z,78.10
2018-07-22T22:09:51.135Z,78.10
2018-07-22T22:12:21.476Z,78.20
2018-07-22T22:14:51.626Z,78.30
2018-07-22T22:17:21.743Z,78.40
2018-07-22T22:19:51.913Z,78.50
2018-07-22T22:22:22.040Z,79.20
2018-07-22T22:24:52.994Z,79.60
2018-07-22T22:27:23.198Z,79.70
2018-07-22T22:29:53.432Z,79.80
2018-07-22T22:32:23.526Z,80.00
2018-07-22T22:35:06.950Z,80.30
2018-07-22T22:37:37.070Z,80.60
2018-07-22T22:40:18.574Z,81.10
2018-07-22T22:42:48.613Z,81.30
2018-07-22T22:45:32.965Z,81.00
2018-07-22T22:48:03.127Z,81.20
2018-07-22T22:50:44.958Z,80.80
2018-07-22T22:53:14.994Z,81.10
2018-07-22T22:55:56.718Z,81.40
2018-07-22T22:58:37.498Z,82.00
2018-07-22T23:01:12.236Z,82.20
2018-07-22T23:03:42.267Z,82.40
2018-07-22T23:06:24.556Z,82.30
2018-07-22T23:08:54.638Z,82.30
2018-07-22T23:11:38.975Z,82.50
2018-07-22T23:14:09.082Z,82.30
2018-07-22T23:16:51.650Z,82.70
2018-07-22T23:19:21.683Z,83.10
2018-07-22T23:22:08.105Z,83.30
2018-07-22T23:24:38.139Z,83.30
2018-07-22T23:27:19.942Z,83.20
2018-07-22T23:29:50.021Z,83.60
2018-07-22T23:32:37.509Z,83.70
2018-07-22T23:35:07.560Z,84.00
2018-07-22T23:37:49.313Z,84.40
2018-07-22T23:40:19.742Z,84.40
2018-07-22T23:43:04.042Z,84.50
2018-07-22T23:45:34.086Z,84.70
2018-07-22T23:48:18.738Z,85.00
2018-07-22T23:50:48.798Z,85.10
2018-07-22T23:53:34.433Z,84.70
2018-07-22T23:56:04.629Z,84.60
2018-07-22T23:58:44.463Z,85.00
